sensor_id;sensor_type;location;lat;lon;timestamp;P1;durP1;ratioP1;P2;durP2;ratioP2
17818;SDS011;9034;50.284;19.310;2023-09-19T00:01:05;15.02;;;12.60;;
17818;SDS011;9034;50.284;19.310;2023-09-19T00:02:09;15.27;;;11.48;;
17818;SDS011;9034;50.284;19.310;2023-09-19T00:03:11;13.52;;;12.00;;
17818;SDS011;9034;50.284;19.310;2023-09-19T00:04:14;14.57;;;11.65;;
17818;SDS011;9034;50.284;19.310;2023-09-19T00:05:16;14.00;;;11.65;;
17818;SDS011;9034;50.284;19.310;2023-09-19T00:06:19;15.70;;;11.82;;
17818;SDS011;9034;50.284;19.310;2023-09-19T00:07:23;13.40;;;11.65;;
17818;SDS011;9034;50.284;19.310;2023-09-19T00:08:25;12.52;;;10.98;;
17818;SDS011;9034;50.284;19.310;2023-09-19T00:09:29;13.80;;;11.35;;
17818;SDS011;9034;50.284;19.310;2023-09-19T00:10:32;13.98;;;11.48;;
17818;SDS011;9034;50.284;19.310;2023-09-19T00:11:36;13.23;;;10.57;;
17818;SDS011;9034;50.284;19.310;2023-09-19T00:12:42;18.23;;;11.57;;
17818;SDS011;9034;50.284;19.310;2023-09-19T00:13:44;11.98;;;10.75;;
17818;SDS011;9034;50.284;19.310;2023-09-19T00:14:52;13.25;;;10.93;;
17818;SDS011;9034;50.284;19.310;2023-09-19T00:15:54;11.93;;;10.57;;
17818;SDS011;9034;50.284;19.310;2023-09-19T00:16:58;16.35;;;11.48;;
17818;SDS011;9034;50.284;19.310;2023-09-19T00:18:02;13.95;;;11.43;;
17818;SDS011;9034;50.284;19.310;2023-09-19T00:19:08;13.48;;;11.05;;
17818;SDS011;9034;50.284;19.310;2023-09-19T00:20:11;12.55;;;11.02;;
17818;SDS011;9034;50.284;19.310;2023-09-19T00:21:14;14.00;;;11.45;;
17818;SDS011;9034;50.284;19.310;2023-09-19T00:22:16;11.10;;;9.93;;
17818;SDS011;9034;50.284;19.310;2023-09-19T00:23:20;11.80;;;10.13;;
17818;SDS011;9034;50.284;19.310;2023-09-19T00:24:22;12.13;;;10.90;;
17818;SDS011;9034;50.284;19.310;2023-09-19T00:25:25;13.85;;;10.82;;
17818;SDS011;9034;50.284;19.310;2023-09-19T00:26:29;12.23;;;10.93;;
17818;SDS011;9034;50.284;19.310;2023-09-19T00:27:34;12.32;;;10.38;;
17818;SDS011;9034;50.284;19.310;2023-09-19T00:28:36;12.07;;;10.30;;
17818;SDS011;9034;50.284;19.310;2023-09-19T00:29:39;11.73;;;10.38;;
17818;SDS011;9034;50.284;19.310;2023-09-19T00:30:43;10.50;;;9.35;;
17818;SDS011;9034;50.284;19.310;2023-09-19T00:31:46;12.73;;;10.52;;
17818;SDS011;9034;50.284;19.310;2023-09-19T00:32:48;11.40;;;10.20;;
17818;SDS011;9034;50.284;19.310;2023-09-19T00:33:56;11.60;;;10.40;;
17818;SDS011;9034;50.284;19.310;2023-09-19T00:35:01;10.75;;;9.57;;
17818;SDS011;9034;50.284;19.310;2023-09-19T00:36:04;10.50;;;9.38;;
17818;SDS011;9034;50.284;19.310;2023-09-19T00:37:07;12.80;;;9.43;;
17818;SDS011;9034;50.284;19.310;2023-09-19T00:38:12;10.13;;;9.07;;
17818;SDS011;9034;50.284;19.310;2023-09-19T00:39:19;11.07;;;9.98;;
17818;SDS011;9034;50.284;19.310;2023-09-19T00:40:21;11.38;;;9.52;;
17818;SDS011;9034;50.284;19.310;2023-09-19T00:41:25;12.20;;;9.93;;
17818;SDS011;9034;50.284;19.310;2023-09-19T00:42:27;12.02;;;10.27;;
17818;SDS011;9034;50.284;19.310;2023-09-19T00:43:30;10.85;;;9.57;;
17818;SDS011;9034;50.284;19.310;2023-09-19T00:44:36;11.00;;;9.88;;
17818;SDS011;9034;50.284;19.310;2023-09-19T00:45:39;11.88;;;10.43;;
17818;SDS011;9034;50.284;19.310;2023-09-19T00:46:47;11.30;;;10.20;;
17818;SDS011;9034;50.284;19.310;2023-09-19T00:47:51;12.70;;;10.68;;
17818;SDS011;9034;50.284;19.310;2023-09-19T00:48:55;11.77;;;10.32;;
17818;SDS011;9034;50.284;19.310;2023-09-19T00:49:58;11.70;;;9.60;;
17818;SDS011;9034;50.284;19.310;2023-09-19T00:51:02;11.80;;;10.57;;
17818;SDS011;9034;50.284;19.310;2023-09-19T00:52:05;13.45;;;10.43;;
17818;SDS011;9034;50.284;19.310;2023-09-19T00:53:08;13.98;;;10.70;;
17818;SDS011;9034;50.284;19.310;2023-09-19T00:54:11;11.57;;;10.38;;
17818;SDS011;9034;50.284;19.310;2023-09-19T00:55:19;11.85;;;10.65;;
17818;SDS011;9034;50.284;19.310;2023-09-19T00:56:21;10.80;;;9.70;;
17818;SDS011;9034;50.284;19.310;2023-09-19T00:57:25;11.73;;;10.30;;
17818;SDS011;9034;50.284;19.310;2023-09-19T00:58:27;12.48;;;10.25;;
17818;SDS011;9034;50.284;19.310;2023-09-19T00:59:35;14.63;;;10.25;;
17818;SDS011;9034;50.284;19.310;2023-09-19T01:00:37;13.57;;;10.50;;
17818;SDS011;9034;50.284;19.310;2023-09-19T01:01:40;11.70;;;10.45;;
17818;SDS011;9034;50.284;19.310;2023-09-19T01:02:44;12.95;;;11.68;;
17818;SDS011;9034;50.284;19.310;2023-09-19T01:03:47;13.75;;;10.77;;
17818;SDS011;9034;50.284;19.310;2023-09-19T01:04:49;11.63;;;10.00;;
17818;SDS011;9034;50.284;19.310;2023-09-19T01:05:52;11.98;;;10.20;;
17818;SDS011;9034;50.284;19.310;2023-09-19T01:06:54;12.35;;;10.13;;
17818;SDS011;9034;50.284;19.310;2023-09-19T01:08:00;12.77;;;10.50;;
17818;SDS011;9034;50.284;19.310;2023-09-19T01:09:03;11.75;;;10.43;;
17818;SDS011;9034;50.284;19.310;2023-09-19T01:10:08;12.20;;;10.13;;
17818;SDS011;9034;50.284;19.310;2023-09-19T01:11:12;11.77;;;9.80;;
17818;SDS011;9034;50.284;19.310;2023-09-19T01:12:19;11.25;;;10.02;;
17818;SDS011;9034;50.284;19.310;2023-09-19T01:13:27;11.73;;;10.13;;
17818;SDS011;9034;50.284;19.310;2023-09-19T01:14:34;12.13;;;10.68;;
17818;SDS011;9034;50.284;19.310;2023-09-19T01:15:40;13.13;;;10.88;;
17818;SDS011;9034;50.284;19.310;2023-09-19T01:16:50;15.10;;;11.70;;
17818;SDS011;9034;50.284;19.310;2023-09-19T01:18:00;12.05;;;10.80;;
17818;SDS011;9034;50.284;19.310;2023-09-19T01:19:14;10.63;;;9.52;;
17818;SDS011;9034;50.284;19.310;2023-09-19T01:20:30;11.43;;;10.25;;
17818;SDS011;9034;50.284;19.310;2023-09-19T01:21:38;10.52;;;9.52;;
17818;SDS011;9034;50.284;19.310;2023-09-19T01:22:51;12.20;;;10.52;;
17818;SDS011;9034;50.284;19.310;2023-09-19T01:24:13;13.23;;;10.00;;
17818;SDS011;9034;50.284;19.310;2023-09-19T01:27:13;12.75;;;10.18;;
17818;SDS011;9034;50.284;19.310;2023-09-19T01:28:29;13.82;;;10.57;;
17818;SDS011;9034;50.284;19.310;2023-09-19T01:29:38;12.35;;;10.57;;
17818;SDS011;9034;50.284;19.310;2023-09-19T01:30:43;12.43;;;10.07;;
17818;SDS011;9034;50.284;19.310;2023-09-19T01:31:46;12.13;;;10.73;;
17818;SDS011;9034;50.284;19.310;2023-09-19T01:32:49;10.38;;;9.10;;
17818;SDS011;9034;50.284;19.310;2023-09-19T01:33:57;11.70;;;10.50;;
17818;SDS011;9034;50.284;19.310;2023-09-19T01:35:05;12.57;;;10.05;;
17818;SDS011;9034;50.284;19.310;2023-09-19T01:36:09;11.43;;;9.73;;
17818;SDS011;9034;50.284;19.310;2023-09-19T01:37:11;11.77;;;9.95;;
17818;SDS011;9034;50.284;19.310;2023-09-19T01:38:14;12.13;;;10.30;;
17818;SDS011;9034;50.284;19.310;2023-09-19T01:40:27;11.63;;;10.43;;
17818;SDS011;9034;50.284;19.310;2023-09-19T01:41:32;11.68;;;10.43;;
17818;SDS011;9034;50.284;19.310;2023-09-19T01:42:41;11.77;;;10.45;;
17818;SDS011;9034;50.284;19.310;2023-09-19T01:43:46;13.05;;;11.00;;
17818;SDS011;9034;50.284;19.310;2023-09-19T01:44:51;10.80;;;9.68;;
17818;SDS011;9034;50.284;19.310;2023-09-19T01:45:59;11.77;;;10.00;;
17818;SDS011;9034;50.284;19.310;2023-09-19T01:47:08;11.57;;;10.38;;
17818;SDS011;9034;50.284;19.310;2023-09-19T01:48:18;12.10;;;10.00;;
17818;SDS011;9034;50.284;19.310;2023-09-19T01:49:24;12.65;;;10.23;;
17818;SDS011;9034;50.284;19.310;2023-09-19T01:50:30;14.55;;;10.77;;
17818;SDS011;9034;50.284;19.310;2023-09-19T01:51:34;15.98;;;10.48;;
17818;SDS011;9034;50.284;19.310;2023-09-19T01:52:42;12.57;;;9.90;;
17818;SDS011;9034;50.284;19.310;2023-09-19T01:53:50;11.38;;;9.98;;
17818;SDS011;9034;50.284;19.310;2023-09-19T01:55:00;11.20;;;10.10;;
17818;SDS011;9034;50.284;19.310;2023-09-19T01:56:11;12.88;;;10.90;;
17818;SDS011;9034;50.284;19.310;2023-09-19T01:57:20;11.43;;;10.23;;
17818;SDS011;9034;50.284;19.310;2023-09-19T01:58:27;11.88;;;10.38;;
17818;SDS011;9034;50.284;19.310;2023-09-19T01:59:35;11.63;;;10.40;;
17818;SDS011;9034;50.284;19.310;2023-09-19T02:00:41;11.73;;;10.13;;
17818;SDS011;9034;50.284;19.310;2023-09-19T02:01:47;12.07;;;10.65;;
17818;SDS011;9034;50.284;19.310;2023-09-19T02:02:49;11.05;;;9.88;;
17818;SDS011;9034;50.284;19.310;2023-09-19T02:03:54;11.68;;;10.07;;
17818;SDS011;9034;50.284;19.310;2023-09-19T02:04:58;14.30;;;11.02;;
17818;SDS011;9034;50.284;19.310;2023-09-19T02:06:02;11.25;;;10.02;;
17818;SDS011;9034;50.284;19.310;2023-09-19T02:07:06;11.88;;;10.68;;
17818;SDS011;9034;50.284;19.310;2023-09-19T02:08:09;11.95;;;10.10;;
17818;SDS011;9034;50.284;19.310;2023-09-19T02:09:12;10.93;;;9.65;;
17818;SDS011;9034;50.284;19.310;2023-09-19T02:10:15;11.23;;;9.55;;
17818;SDS011;9034;50.284;19.310;2023-09-19T02:11:20;12.27;;;9.90;;
17818;SDS011;9034;50.284;19.310;2023-09-19T02:12:22;12.18;;;9.75;;
17818;SDS011;9034;50.284;19.310;2023-09-19T02:13:25;11.20;;;9.63;;
17818;SDS011;9034;50.284;19.310;2023-09-19T02:14:27;11.82;;;9.48;;
17818;SDS011;9034;50.284;19.310;2023-09-19T02:15:31;11.98;;;9.57;;
17818;SDS011;9034;50.284;19.310;2023-09-19T02:16:35;12.38;;;9.95;;
17818;SDS011;9034;50.284;19.310;2023-09-19T02:17:40;10.73;;;9.02;;
17818;SDS011;9034;50.284;19.310;2023-09-19T02:18:43;14.10;;;10.18;;
17818;SDS011;9034;50.284;19.310;2023-09-19T02:19:46;14.02;;;9.27;;
17818;SDS011;9034;50.284;19.310;2023-09-19T02:20:48;11.63;;;9.50;;
17818;SDS011;9034;50.284;19.310;2023-09-19T02:21:52;14.45;;;9.57;;
17818;SDS011;9034;50.284;19.310;2023-09-19T02:22:55;12.63;;;9.00;;
17818;SDS011;9034;50.284;19.310;2023-09-19T02:23:58;10.85;;;8.50;;
17818;SDS011;9034;50.284;19.310;2023-09-19T02:25:00;10.73;;;8.70;;
17818;SDS011;9034;50.284;19.310;2023-09-19T02:26:05;13.48;;;9.05;;
17818;SDS011;9034;50.284;19.310;2023-09-19T02:27:07;9.50;;;8.50;;
17818;SDS011;9034;50.284;19.310;2023-09-19T02:28:10;13.13;;;9.32;;
17818;SDS011;9034;50.284;19.310;2023-09-19T02:29:13;14.43;;;9.50;;
17818;SDS011;9034;50.284;19.310;2023-09-19T02:30:16;10.32;;;9.18;;
17818;SDS011;9034;50.284;19.310;2023-09-19T02:31:21;12.13;;;9.57;;
17818;SDS011;9034;50.284;19.310;2023-09-19T02:32:25;13.30;;;9.45;;
17818;SDS011;9034;50.284;19.310;2023-09-19T02:33:28;12.97;;;9.30;;
17818;SDS011;9034;50.284;19.310;2023-09-19T02:34:34;13.07;;;9.80;;
17818;SDS011;9034;50.284;19.310;2023-09-19T02:35:38;10.82;;;8.75;;
17818;SDS011;9034;50.284;19.310;2023-09-19T02:36:40;10.80;;;8.30;;
17818;SDS011;9034;50.284;19.310;2023-09-19T02:37:42;10.82;;;9.18;;
17818;SDS011;9034;50.284;19.310;2023-09-19T02:38:46;10.07;;;8.98;;
17818;SDS011;9034;50.284;19.310;2023-09-19T02:39:49;12.18;;;9.05;;
17818;SDS011;9034;50.284;19.310;2023-09-19T02:40:52;10.68;;;9.23;;
17818;SDS011;9034;50.284;19.310;2023-09-19T02:41:56;11.20;;;9.32;;
17818;SDS011;9034;50.284;19.310;2023-09-19T02:42:59;9.50;;;8.48;;
17818;SDS011;9034;50.284;19.310;2023-09-19T02:44:01;15.95;;;9.18;;
17818;SDS011;9034;50.284;19.310;2023-09-19T02:45:04;12.18;;;8.75;;
17818;SDS011;9034;50.284;19.310;2023-09-19T02:46:08;10.32;;;9.13;;
17818;SDS011;9034;50.284;19.310;2023-09-19T02:47:29;8.98;;;8.02;;
17818;SDS011;9034;50.284;19.310;2023-09-19T02:48:34;10.50;;;8.30;;
17818;SDS011;9034;50.284;19.310;2023-09-19T02:49:37;8.65;;;7.72;;
17818;SDS011;9034;50.284;19.310;2023-09-19T02:50:40;11.05;;;8.68;;
17818;SDS011;9034;50.284;19.310;2023-09-19T02:51:43;10.90;;;9.00;;
17818;SDS011;9034;50.284;19.310;2023-09-19T02:52:47;9.38;;;8.45;;
17818;SDS011;9034;50.284;19.310;2023-09-19T02:53:50;10.63;;;9.50;;
17818;SDS011;9034;50.284;19.310;2023-09-19T02:54:54;9.43;;;8.50;;
17818;SDS011;9034;50.284;19.310;2023-09-19T02:55:56;10.15;;;9.15;;
17818;SDS011;9034;50.284;19.310;2023-09-19T02:57:00;9.77;;;8.77;;
17818;SDS011;9034;50.284;19.310;2023-09-19T02:58:02;10.00;;;8.90;;
17818;SDS011;9034;50.284;19.310;2023-09-19T02:59:06;10.93;;;9.20;;
17818;SDS011;9034;50.284;19.310;2023-09-19T03:00:09;11.50;;;9.43;;
17818;SDS011;9034;50.284;19.310;2023-09-19T03:01:14;9.80;;;8.48;;
17818;SDS011;9034;50.284;19.310;2023-09-19T03:02:16;10.50;;;9.10;;
17818;SDS011;9034;50.284;19.310;2023-09-19T03:03:20;10.85;;;9.43;;
17818;SDS011;9034;50.284;19.310;2023-09-19T03:04:23;10.90;;;9.65;;
17818;SDS011;9034;50.284;19.310;2023-09-19T03:05:28;10.38;;;8.80;;
17818;SDS011;9034;50.284;19.310;2023-09-19T03:06:32;11.52;;;9.68;;
17818;SDS011;9034;50.284;19.310;2023-09-19T03:07:35;11.63;;;9.77;;
17818;SDS011;9034;50.284;19.310;2023-09-19T03:08:38;13.83;;;9.40;;
17818;SDS011;9034;50.284;19.310;2023-09-19T03:09:44;11.00;;;9.73;;
17818;SDS011;9034;50.284;19.310;2023-09-19T03:10:46;9.90;;;8.75;;
17818;SDS011;9034;50.284;19.310;2023-09-19T03:11:50;11.50;;;9.52;;
17818;SDS011;9034;50.284;19.310;2023-09-19T03:12:52;9.80;;;8.68;;
17818;SDS011;9034;50.284;19.310;2023-09-19T03:13:54;11.20;;;9.38;;
17818;SDS011;9034;50.284;19.310;2023-09-19T03:14:57;11.95;;;9.68;;
17818;SDS011;9034;50.284;19.310;2023-09-19T03:16:00;10.20;;;9.00;;
17818;SDS011;9034;50.284;19.310;2023-09-19T03:17:06;11.25;;;10.05;;
17818;SDS011;9034;50.284;19.310;2023-09-19T03:18:10;12.80;;;10.48;;
17818;SDS011;9034;50.284;19.310;2023-09-19T03:19:14;12.93;;;10.07;;
17818;SDS011;9034;50.284;19.310;2023-09-19T03:20:19;12.38;;;10.07;;
17818;SDS011;9034;50.284;19.310;2023-09-19T03:21:23;12.80;;;10.38;;
17818;SDS011;9034;50.284;19.310;2023-09-19T03:22:26;11.48;;;10.38;;
17818;SDS011;9034;50.284;19.310;2023-09-19T03:23:29;13.82;;;11.07;;
17818;SDS011;9034;50.284;19.310;2023-09-19T03:24:31;11.90;;;10.70;;
17818;SDS011;9034;50.284;19.310;2023-09-19T03:25:35;13.75;;;10.68;;
17818;SDS011;9034;50.284;19.310;2023-09-19T03:26:38;12.23;;;11.05;;
17818;SDS011;9034;50.284;19.310;2023-09-19T03:27:41;12.40;;;10.73;;
17818;SDS011;9034;50.284;19.310;2023-09-19T03:28:44;15.07;;;11.05;;
17818;SDS011;9034;50.284;19.310;2023-09-19T03:29:47;12.77;;;11.48;;
17818;SDS011;9034;50.284;19.310;2023-09-19T03:30:59;13.52;;;11.38;;
17818;SDS011;9034;50.284;19.310;2023-09-19T03:32:04;13.48;;;11.90;;
17818;SDS011;9034;50.284;19.310;2023-09-19T03:33:07;12.32;;;10.88;;
17818;SDS011;9034;50.284;19.310;2023-09-19T03:34:11;12.25;;;10.88;;
17818;SDS011;9034;50.284;19.310;2023-09-19T03:35:14;13.23;;;11.82;;
17818;SDS011;9034;50.284;19.310;2023-09-19T03:36:18;15.23;;;11.63;;
17818;SDS011;9034;50.284;19.310;2023-09-19T03:37:21;12.57;;;10.85;;
17818;SDS011;9034;50.284;19.310;2023-09-19T03:38:24;12.25;;;11.05;;
17818;SDS011;9034;50.284;19.310;2023-09-19T03:39:27;12.98;;;11.43;;
17818;SDS011;9034;50.284;19.310;2023-09-19T03:40:28;13.07;;;11.27;;
17818;SDS011;9034;50.284;19.310;2023-09-19T03:41:31;15.77;;;11.73;;
17818;SDS011;9034;50.284;19.310;2023-09-19T03:42:34;14.27;;;12.10;;
17818;SDS011;9034;50.284;19.310;2023-09-19T03:43:37;13.20;;;11.82;;
17818;SDS011;9034;50.284;19.310;2023-09-19T03:44:41;13.27;;;11.73;;
17818;SDS011;9034;50.284;19.310;2023-09-19T03:45:43;13.32;;;11.60;;
17818;SDS011;9034;50.284;19.310;2023-09-19T03:46:48;13.88;;;12.27;;
17818;SDS011;9034;50.284;19.310;2023-09-19T03:47:50;13.55;;;12.15;;
17818;SDS011;9034;50.284;19.310;2023-09-19T03:48:56;15.27;;;13.57;;
17818;SDS011;9034;50.284;19.310;2023-09-19T03:49:58;13.85;;;12.38;;
17818;SDS011;9034;50.284;19.310;2023-09-19T03:51:01;13.48;;;12.05;;
17818;SDS011;9034;50.284;19.310;2023-09-19T03:52:05;13.43;;;12.02;;
17818;SDS011;9034;50.284;19.310;2023-09-19T03:53:08;16.27;;;12.68;;
17818;SDS011;9034;50.284;19.310;2023-09-19T03:54:09;15.30;;;12.65;;
17818;SDS011;9034;50.284;19.310;2023-09-19T03:55:12;14.75;;;12.50;;
17818;SDS011;9034;50.284;19.310;2023-09-19T03:56:15;15.77;;;13.10;;
17818;SDS011;9034;50.284;19.310;2023-09-19T03:57:18;15.57;;;12.95;;
17818;SDS011;9034;50.284;19.310;2023-09-19T03:58:22;14.75;;;13.18;;
17818;SDS011;9034;50.284;19.310;2023-09-19T03:59:25;14.48;;;12.98;;
17818;SDS011;9034;50.284;19.310;2023-09-19T04:00:27;15.40;;;13.32;;
17818;SDS011;9034;50.284;19.310;2023-09-19T04:01:32;18.58;;;13.85;;
17818;SDS011;9034;50.284;19.310;2023-09-19T04:02:35;16.73;;;14.10;;
17818;SDS011;9034;50.284;19.310;2023-09-19T04:03:39;16.85;;;13.52;;
17818;SDS011;9034;50.284;19.310;2023-09-19T04:04:48;16.50;;;14.27;;
17818;SDS011;9034;50.284;19.310;2023-09-19T04:05:51;19.20;;;14.85;;
17818;SDS011;9034;50.284;19.310;2023-09-19T04:06:53;16.33;;;14.50;;
17818;SDS011;9034;50.284;19.310;2023-09-19T04:07:57;19.00;;;14.95;;
17818;SDS011;9034;50.284;19.310;2023-09-19T04:08:59;17.58;;;14.93;;
17818;SDS011;9034;50.284;19.310;2023-09-19T04:10:04;21.40;;;14.45;;
17818;SDS011;9034;50.284;19.310;2023-09-19T04:11:06;21.25;;;15.95;;
17818;SDS011;9034;50.284;19.310;2023-09-19T04:12:09;31.73;;;15.65;;
17818;SDS011;9034;50.284;19.310;2023-09-19T04:13:11;48.50;;;17.50;;
17818;SDS011;9034;50.284;19.310;2023-09-19T04:14:14;18.95;;;15.63;;
17818;SDS011;9034;50.284;19.310;2023-09-19T04:15:16;24.23;;;16.35;;
17818;SDS011;9034;50.284;19.310;2023-09-19T04:16:18;26.88;;;16.92;;
17818;SDS011;9034;50.284;19.310;2023-09-19T04:17:21;51.08;;;17.63;;
17818;SDS011;9034;50.284;19.310;2023-09-19T04:18:25;36.22;;;18.38;;
17818;SDS011;9034;50.284;19.310;2023-09-19T04:19:28;24.23;;;16.67;;
17818;SDS011;9034;50.284;19.310;2023-09-19T04:20:30;24.52;;;16.60;;
17818;SDS011;9034;50.284;19.310;2023-09-19T04:21:33;21.27;;;16.85;;
17818;SDS011;9034;50.284;19.310;2023-09-19T04:22:35;19.23;;;14.95;;
17818;SDS011;9034;50.284;19.310;2023-09-19T04:23:39;24.13;;;17.45;;
17818;SDS011;9034;50.284;19.310;2023-09-19T04:24:42;21.60;;;16.25;;
17818;SDS011;9034;50.284;19.310;2023-09-19T04:25:45;21.98;;;17.58;;
17818;SDS011;9034;50.284;19.310;2023-09-19T04:26:47;21.27;;;15.98;;
17818;SDS011;9034;50.284;19.310;2023-09-19T04:27:50;25.15;;;16.92;;
17818;SDS011;9034;50.284;19.310;2023-09-19T04:28:52;23.73;;;17.52;;
17818;SDS011;9034;50.284;19.310;2023-09-19T04:29:55;20.55;;;16.75;;
17818;SDS011;9034;50.284;19.310;2023-09-19T04:31:00;24.38;;;16.38;;
17818;SDS011;9034;50.284;19.310;2023-09-19T04:32:03;19.27;;;15.52;;
17818;SDS011;9034;50.284;19.310;2023-09-19T04:33:07;21.52;;;16.40;;
17818;SDS011;9034;50.284;19.310;2023-09-19T04:34:09;27.45;;;17.95;;
17818;SDS011;9034;50.284;19.310;2023-09-19T04:35:18;18.75;;;15.77;;
17818;SDS011;9034;50.284;19.310;2023-09-19T04:36:20;23.80;;;16.77;;
17818;SDS011;9034;50.284;19.310;2023-09-19T04:37:37;22.58;;;18.17;;
17818;SDS011;9034;50.284;19.310;2023-09-19T04:38:41;27.27;;;16.95;;
17818;SDS011;9034;50.284;19.310;2023-09-19T04:39:47;22.20;;;17.63;;
17818;SDS011;9034;50.284;19.310;2023-09-19T04:40:49;21.92;;;16.92;;
17818;SDS011;9034;50.284;19.310;2023-09-19T04:41:52;22.73;;;16.40;;
17818;SDS011;9034;50.284;19.310;2023-09-19T04:42:54;23.80;;;17.40;;
17818;SDS011;9034;50.284;19.310;2023-09-19T04:43:58;28.33;;;18.48;;
17818;SDS011;9034;50.284;19.310;2023-09-19T04:45:00;32.55;;;18.00;;
17818;SDS011;9034;50.284;19.310;2023-09-19T04:46:03;23.08;;;17.60;;
17818;SDS011;9034;50.284;19.310;2023-09-19T04:47:08;23.45;;;16.88;;
17818;SDS011;9034;50.284;19.310;2023-09-19T04:48:13;27.60;;;17.42;;
17818;SDS011;9034;50.284;19.310;2023-09-19T04:49:17;28.80;;;18.05;;
17818;SDS011;9034;50.284;19.310;2023-09-19T04:50:20;36.20;;;20.27;;
17818;SDS011;9034;50.284;19.310;2023-09-19T04:51:22;33.13;;;18.75;;
17818;SDS011;9034;50.284;19.310;2023-09-19T04:52:25;31.55;;;19.02;;
17818;SDS011;9034;50.284;19.310;2023-09-19T04:53:27;20.52;;;17.63;;
17818;SDS011;9034;50.284;19.310;2023-09-19T04:54:31;23.00;;;17.75;;
17818;SDS011;9034;50.284;19.310;2023-09-19T04:55:33;32.08;;;18.73;;
17818;SDS011;9034;50.284;19.310;2023-09-19T04:56:36;22.38;;;17.20;;
17818;SDS011;9034;50.284;19.310;2023-09-19T04:57:42;32.92;;;18.38;;
17818;SDS011;9034;50.284;19.310;2023-09-19T04:58:46;24.88;;;17.55;;
17818;SDS011;9034;50.284;19.310;2023-09-19T04:59:48;21.35;;;17.33;;
17818;SDS011;9034;50.284;19.310;2023-09-19T05:00:51;24.33;;;17.08;;
17818;SDS011;9034;50.284;19.310;2023-09-19T05:01:53;20.73;;;17.05;;
17818;SDS011;9034;50.284;19.310;2023-09-19T05:02:57;21.13;;;17.63;;
17818;SDS011;9034;50.284;19.310;2023-09-19T05:03:59;24.30;;;17.80;;
17818;SDS011;9034;50.284;19.310;2023-09-19T05:05:02;21.60;;;17.30;;
17818;SDS011;9034;50.284;19.310;2023-09-19T05:06:06;20.83;;;17.13;;
17818;SDS011;9034;50.284;19.310;2023-09-19T05:07:09;21.00;;;17.15;;
17818;SDS011;9034;50.284;19.310;2023-09-19T05:08:12;24.58;;;18.55;;
17818;SDS011;9034;50.284;19.310;2023-09-19T05:09:16;22.42;;;18.80;;
17818;SDS011;9034;50.284;19.310;2023-09-19T05:10:22;26.73;;;18.77;;
17818;SDS011;9034;50.284;19.310;2023-09-19T05:11:25;21.35;;;17.80;;
17818;SDS011;9034;50.284;19.310;2023-09-19T05:12:28;22.00;;;18.10;;
17818;SDS011;9034;50.284;19.310;2023-09-19T05:13:31;27.75;;;19.35;;
17818;SDS011;9034;50.284;19.310;2023-09-19T05:14:34;23.67;;;18.20;;
17818;SDS011;9034;50.284;19.310;2023-09-19T05:15:36;30.00;;;19.27;;
17818;SDS011;9034;50.284;19.310;2023-09-19T05:16:39;34.00;;;19.02;;
17818;SDS011;9034;50.284;19.310;2023-09-19T05:17:42;20.73;;;17.58;;
17818;SDS011;9034;50.284;19.310;2023-09-19T05:18:50;27.17;;;18.50;;
17818;SDS011;9034;50.284;19.310;2023-09-19T05:19:52;22.90;;;18.10;;
17818;SDS011;9034;50.284;19.310;2023-09-19T05:20:55;22.73;;;17.52;;
17818;SDS011;9034;50.284;19.310;2023-09-19T05:21:57;28.42;;;19.13;;
17818;SDS011;9034;50.284;19.310;2023-09-19T05:23:00;25.42;;;18.60;;
17818;SDS011;9034;50.284;19.310;2023-09-19T05:24:03;27.77;;;17.88;;
17818;SDS011;9034;50.284;19.310;2023-09-19T05:25:10;22.40;;;17.05;;
17818;SDS011;9034;50.284;19.310;2023-09-19T05:26:13;21.52;;;18.15;;
17818;SDS011;9034;50.284;19.310;2023-09-19T05:27:18;70.57;;;24.45;;
17818;SDS011;9034;50.284;19.310;2023-09-19T05:28:20;66.82;;;22.75;;
17818;SDS011;9034;50.284;19.310;2023-09-19T05:29:23;24.85;;;17.92;;
17818;SDS011;9034;50.284;19.310;2023-09-19T05:30:25;25.25;;;19.50;;
17818;SDS011;9034;50.284;19.310;2023-09-19T05:31:28;59.25;;;22.27;;
17818;SDS011;9034;50.284;19.310;2023-09-19T05:32:30;19.17;;;17.05;;
17818;SDS011;9034;50.284;19.310;2023-09-19T05:33:33;29.77;;;19.00;;
17818;SDS011;9034;50.284;19.310;2023-09-19T05:34:35;30.42;;;18.25;;
17818;SDS011;9034;50.284;19.310;2023-09-19T05:35:38;61.63;;;22.67;;
17818;SDS011;9034;50.284;19.310;2023-09-19T05:36:43;26.77;;;19.77;;
17818;SDS011;9034;50.284;19.310;2023-09-19T05:37:46;25.60;;;18.38;;
17818;SDS011;9034;50.284;19.310;2023-09-19T05:38:48;49.95;;;21.50;;
17818;SDS011;9034;50.284;19.310;2023-09-19T05:39:52;33.97;;;21.03;;
17818;SDS011;9034;50.284;19.310;2023-09-19T05:40:55;28.27;;;20.40;;
17818;SDS011;9034;50.284;19.310;2023-09-19T05:41:59;29.83;;;21.88;;
17818;SDS011;9034;50.284;19.310;2023-09-19T05:43:01;28.73;;;21.95;;
17818;SDS011;9034;50.284;19.310;2023-09-19T05:44:07;35.10;;;22.58;;
17818;SDS011;9034;50.284;19.310;2023-09-19T05:45:09;29.95;;;22.90;;
17818;SDS011;9034;50.284;19.310;2023-09-19T05:46:14;29.50;;;22.88;;
17818;SDS011;9034;50.284;19.310;2023-09-19T05:47:18;49.58;;;24.85;;
17818;SDS011;9034;50.284;19.310;2023-09-19T05:48:21;38.08;;;26.45;;
17818;SDS011;9034;50.284;19.310;2023-09-19T05:49:23;40.25;;;27.85;;
17818;SDS011;9034;50.284;19.310;2023-09-19T05:50:27;37.10;;;26.98;;
17818;SDS011;9034;50.284;19.310;2023-09-19T05:51:29;43.60;;;27.73;;
17818;SDS011;9034;50.284;19.310;2023-09-19T05:52:32;39.03;;;27.92;;
17818;SDS011;9034;50.284;19.310;2023-09-19T05:53:34;50.67;;;28.85;;
17818;SDS011;9034;50.284;19.310;2023-09-19T05:54:37;41.17;;;27.42;;
17818;SDS011;9034;50.284;19.310;2023-09-19T05:55:39;47.70;;;29.10;;
17818;SDS011;9034;50.284;19.310;2023-09-19T05:56:42;34.88;;;25.75;;
17818;SDS011;9034;50.284;19.310;2023-09-19T05:57:48;40.03;;;27.08;;
17818;SDS011;9034;50.284;19.310;2023-09-19T05:58:52;37.78;;;26.13;;
17818;SDS011;9034;50.284;19.310;2023-09-19T05:59:54;51.35;;;28.00;;
17818;SDS011;9034;50.284;19.310;2023-09-19T06:00:56;36.38;;;26.25;;
17818;SDS011;9034;50.284;19.310;2023-09-19T06:02:00;42.22;;;26.55;;
17818;SDS011;9034;50.284;19.310;2023-09-19T06:03:02;41.30;;;25.80;;
17818;SDS011;9034;50.284;19.310;2023-09-19T06:04:06;38.08;;;23.42;;
17818;SDS011;9034;50.284;19.310;2023-09-19T06:05:08;35.13;;;24.42;;
17818;SDS011;9034;50.284;19.310;2023-09-19T06:06:12;43.83;;;25.33;;
17818;SDS011;9034;50.284;19.310;2023-09-19T06:07:14;34.40;;;24.80;;
17818;SDS011;9034;50.284;19.310;2023-09-19T06:08:18;37.40;;;24.80;;
17818;SDS011;9034;50.284;19.310;2023-09-19T06:09:20;35.63;;;25.90;;
17818;SDS011;9034;50.284;19.310;2023-09-19T06:10:24;38.65;;;25.67;;
17818;SDS011;9034;50.284;19.310;2023-09-19T06:11:26;39.28;;;24.85;;
17818;SDS011;9034;50.284;19.310;2023-09-19T06:12:29;41.33;;;25.60;;
17818;SDS011;9034;50.284;19.310;2023-09-19T06:13:35;46.25;;;25.88;;
17818;SDS011;9034;50.284;19.310;2023-09-19T06:14:41;42.22;;;25.40;;
17818;SDS011;9034;50.284;19.310;2023-09-19T06:15:44;35.92;;;24.52;;
17818;SDS011;9034;50.284;19.310;2023-09-19T06:16:48;29.35;;;21.13;;
17818;SDS011;9034;50.284;19.310;2023-09-19T06:17:54;35.60;;;23.73;;
17818;SDS011;9034;50.284;19.310;2023-09-19T06:18:57;40.35;;;24.33;;
17818;SDS011;9034;50.284;19.310;2023-09-19T06:20:01;31.35;;;22.65;;